| time (UTC) | temp F | wind direction | speed knots | gust knots | rain 1hr in | rain 24hr in | rain mn in | humidity % | barometer mb |
| 20260504222250 | 72 | 271 | 2.6 | 8.7 | 0.00 | 0.00 | 0.00 | 31 | 1005.3 |
| 20260504221528 | 72 | 268 | 3.5 | 8.7 | 0.00 | 0.00 | 0.00 | 33 | 1005.3 |
| 20260504221028 | 72 | 292 | 3.5 | 8.7 | 0.00 | 0.00 | 0.00 | 33 | 1005.3 |
| 20260504220751 | 71 | 268 | 2.6 | 7.0 | 0.00 | 0.00 | 0.00 | 33 | 1005.4 |
| 20260504220029 | 71 | 215 | 3.5 | 8.7 | 0.00 | 0.00 | 0.00 | 31 | 1005.3 |
| 20260504215531 | 71 | 257 | 2.6 | 8.7 | 0.00 | 0.00 | 0.00 | 24 | 1005.4 |
| 20260504215029 | 71 | 225 | 2.6 | 7.8 | 0.00 | 0.00 | 0.00 | 33 | 1005.3 |
| 20260504214531 | 72 | 261 | 2.6 | 5.2 | 0.00 | 0.00 | 0.00 | 33 | 1005.4 |
| 20260504214029 | 72 | 145 | 1.7 | 5.2 | 0.00 | 0.00 | 0.00 | 32 | 1005.3 |
| 20260504213030 | 71 | 267 | 2.6 | 7.8 | 0.00 | 0.00 | 0.00 | 33 | 1005.5 |
| 20260504212531 | 70 | 316 | 3.5 | 11.3 | 0.00 | 0.00 | 0.00 | 33 | 1005.4 |
| 20260504212029 | 71 | 243 | 2.6 | 11.3 | 0.00 | 0.00 | 0.00 | 33 | 1005.4 |
| 20260504211530 | 71 | 275 | 2.6 | 8.7 | 0.00 | 0.00 | 0.00 | 33 | 1005.4 |
| 20260504211029 | 71 | 271 | 3.5 | 8.7 | 0.00 | 0.00 | 0.00 | 32 | 1005.3 |
| 20260504210753 | 71 | 254 | 3.5 | 8.7 | 0.00 | 0.00 | 0.00 | 31 | 1005.4 |
| 20260504210029 | 72 | 209 | 3.5 | 8.7 | 0.00 | 0.00 | 0.00 | 33 | 1005.4 |
| 20260504205529 | 72 | 264 | 3.5 | 8.7 | 0.00 | 0.00 | 0.00 | 23 | 1005.4 |
| 20260504205029 | 73 | 252 | 2.6 | 8.7 | 0.00 | 0.00 | 0.00 | 35 | 1005.4 |
| 20260504204530 | 72 | 267 | 2.6 | 9.6 | 0.00 | 0.00 | 0.00 | 33 | 1005.2 |
| 20260504204028 | 72 | 220 | 3.5 | 9.6 | 0.00 | 0.00 | 0.00 | 32 | 1005.3 |
| 20260504203750 | 71 | 279 | 1.7 | 8.7 | 0.00 | 0.00 | 0.00 | 33 | 1005.4 |
| 20260504203028 | 71 | 319 | 1.7 | 8.7 | 0.00 | 0.00 | 0.00 | 23 | 1005.3 |
| 20260504202530 | 71 | 261 | 2.6 | 12.2 | 0.00 | 0.00 | 0.00 | 32 | 1005.4 |
| 20260504201530 | 71 | 303 | 3.5 | 12.2 | 0.00 | 0.00 | 0.00 | 32 | 1005.3 |
| 20260504200530 | 71 | 259 | 3.5 | 9.6 | 0.00 | 0.00 | 0.00 | 33 | 1005.3 |
| 20260504200029 | 71 | 261 | 3.5 | 7.0 | 0.00 | 0.00 | 0.00 | 33 | 1005.3 |
| 20260504195804 | 72 | 286 | 2.6 | 7.0 | 0.00 | 0.00 | 0.00 | 22 | 1005.3 |
| 20260504195029 | 71 | 105 | 3.5 | 7.8 | 0.00 | 0.00 | 0.00 | 33 | 1005.3 |
| 20260504194530 | 72 | 220 | 2.6 | 10.4 | 0.00 | 0.00 | 0.00 | 31 | 1005.4 |
| 20260504194029 | 72 | 259 | 4.3 | 10.4 | 0.00 | 0.00 | 0.00 | 34 | 1005.3 |
| 20260504193530 | 71 | 205 | 3.5 | 12.2 | 0.00 | 0.00 | 0.00 | 33 | 1005.3 |
| 20260504193259 | 71 | 271 | 1.7 | 12.2 | 0.00 | 0.00 | 0.00 | 25 | 1005.4 |
| 20260504192529 | 70 | 266 | 4.3 | 11.3 | 0.00 | 0.00 | 0.00 | 31 | 1005.4 |
| 20260504192029 | 71 | 268 | 2.6 | 11.3 | 0.00 | 0.00 | 0.00 | 24 | 1005.5 |
| 20260504191529 | 71 | 299 | 3.5 | 8.7 | 0.00 | 0.00 | 0.00 | 32 | 1005.4 |
| 20260504191302 | 71 | 265 | 3.5 | 7.0 | 0.00 | 0.00 | 0.00 | 32 | 1005.3 |
| 20260504190529 | 71 | 312 | 3.5 | 9.6 | 0.00 | 0.00 | 0.00 | 32 | 1005.3 |
| 20260504190029 | 71 | 282 | 3.5 | 9.6 | 0.00 | 0.00 | 0.00 | 30 | 1005.4 |
| 20260504185757 | 71 | 265 | 2.6 | 7.8 | 0.00 | 0.00 | 0.00 | 27 | 1005.5 |
| 20260504185028 | 71 | 250 | 3.5 | 7.8 | 0.00 | 0.00 | 0.00 | 31 | 1005.5 |
| 20260504184529 | 70 | 156 | 3.5 | 10.4 | 0.00 | 0.00 | 0.00 | 32 | 1005.5 |
| 20260504184028 | 71 | 152 | 5.2 | 10.4 | 0.00 | 0.00 | 0.00 | 32 | 1005.5 |
| 20260504183750 | 71 | 15 | 5.2 | 10.4 | 0.00 | 0.00 | 0.00 | 29 | 1005.7 |
| 20260504183028 | 70 | 221 | 2.6 | 9.6 | 0.00 | 0.00 | 0.00 | 33 | 1005.6 |
| 20260504182530 | 69 | 277 | 3.5 | 9.6 | 0.00 | 0.00 | 0.00 | 31 | 1005.8 |
| 20260504182030 | 69 | 294 | 4.3 | 9.6 | 0.00 | 0.00 | 0.00 | 31 | 1005.8 |
| 20260504181531 | 69 | 228 | 3.5 | 13.0 | 0.00 | 0.00 | 0.00 | 32 | 1005.7 |
| 20260504181029 | 70 | 257 | 4.3 | 13.0 | 0.00 | 0.00 | 0.00 | 31 | 1005.8 |
| 20260504180530 | 71 | 263 | 3.5 | 9.6 | 0.00 | 0.00 | 0.00 | 30 | 1005.8 |
| 20260504180029 | 70 | 279 | 5.2 | 18.2 | 0.00 | 0.00 | 0.00 | 31 | 1005.9 |
| 20260504175530 | 70 | 266 | 7.0 | 18.2 | 0.00 | 0.00 | 0.00 | 25 | 1006.0 |
| 20260504175029 | 70 | 292 | 5.2 | 10.4 | 0.00 | 0.00 | 0.00 | 31 | 1005.8 |
| 20260504174530 | 71 | 311 | 4.3 | 9.6 | 0.00 | 0.00 | 0.00 | 22 | 1005.8 |
| 20260504174029 | 70 | 261 | 4.3 | 9.6 | 0.00 | 0.00 | 0.00 | 33 | 1005.9 |
| 20260504173530 | 70 | 297 | 4.3 | 15.6 | 0.00 | 0.00 | 0.00 | 30 | 1005.9 |
| 20260504172530 | 69 | 148 | 5.2 | 10.4 | 0.00 | 0.00 | 0.00 | 32 | 1006.1 |
| 20260504172029 | 68 | 306 | 4.3 | 11.3 | 0.00 | 0.00 | 0.00 | 34 | 1006.1 |
| 20260504171530 | 69 | 315 | 6.1 | 11.3 | 0.00 | 0.00 | 0.00 | 32 | 1006.1 |
| 20260504171029 | 69 | 190 | 3.5 | 10.4 | 0.00 | 0.00 | 0.00 | 33 | 1006.1 |
| 20260504170755 | 69 | 263 | 2.6 | 13.0 | 0.00 | 0.00 | 0.00 | 33 | 1006.3 |
| 20260504170251 | 69 | 254 | 4.3 | 13.0 | 0.00 | 0.00 | 0.00 | 33 | 1006.3 |
| 20260504151029 | 65 | 300 | 3.5 | 10.4 | 0.00 | 0.00 | 0.00 | 39 | 1007.4 |
| 20260504150530 | 65 | 247 | 5.2 | 10.4 | 0.00 | 0.00 | 0.00 | 29 | 1007.3 |
| 20260504141029 | 62 | 259 | 5.2 | 14.8 | 0.00 | 0.00 | 0.00 | 32 | 1008.2 |
| 20260504140530 | 62 | 262 | 3.5 | 9.6 | 0.00 | 0.00 | 0.00 | 41 | 1008.2 |
| 20260504130752 | 57 | 246 | 2.6 | 7.0 | 0.00 | 0.00 | 0.00 | 48 | 1008.7 |
| 20260504081528 | 42 | 255 | 0.9 | 1.7 | 0.00 | 0.01 | 0.00 | 69 | 1009.2 |
| 20260504081028 | 42 | 255 | 0.0 | 1.7 | 0.00 | 0.01 | 0.00 | 69 | 1009.1 |
| 20260504080530 | 42 | 255 | 0.9 | 2.6 | 0.00 | 0.01 | 0.00 | 69 | 1009.1 |
| 20260504080249 | 42 | 255 | 0.9 | 2.6 | 0.00 | 0.01 | 0.00 | 69 | 1009.1 |
| 20260504070253 | 41 | 254 | 0.0 | 2.6 | 0.00 | 0.01 | 0.00 | 68 | 1009.2 |
| 20260504050528 | 38 | 265 | 0.0 | 0.9 | 0.00 | 0.01 | 0.00 | 78 | 1009.1 |
| 20260504045530 | 37 | 285 | 0.0 | 0.0 | 0.00 | 0.01 | 0.00 | 78 | 1009.3 |
| 20260504045253 | 37 | 285 | 0.0 | 0.9 | 0.00 | 0.01 | 0.00 | 79 | 1009.3 |
| 20260504044753 | 37 | 285 | 0.0 | 0.9 | 0.00 | 0.01 | 0.00 | 79 | 1009.2 |
| 20260504044254 | 37 | 285 | 0.0 | 0.9 | 0.00 | 0.01 | 0.00 | 78 | 1009.3 |
| 20260504043529 | 37 | 285 | 0.0 | 0.9 | 0.00 | 0.01 | 0.00 | 77 | 1009.3 |
| 20260504043254 | 37 | 285 | 0.0 | 0.9 | 0.00 | 0.01 | 0.00 | 76 | 1009.2 |
| 20260504042750 | 37 | 285 | 0.0 | 0.0 | 0.00 | 0.01 | 0.00 | 76 | 1009.3 |
| 20260504042031 | 37 | 285 | 0.0 | 0.0 | 0.00 | 0.01 | 0.00 | 76 | 1009.2 |
| 20260504041749 | 37 | 285 | 0.0 | 0.0 | 0.00 | 0.01 | 0.00 | 76 | 1009.2 |
| 20260504041301 | 37 | 285 | 0.0 | 0.0 | 0.00 | 0.01 | 0.00 | 76 | 1009.2 |
| 20260504040529 | 37 | 285 | 0.0 | 0.9 | 0.00 | 0.01 | 0.00 | 76 | 1009.0 |
| 20260504040259 | 37 | 285 | 0.0 | 0.9 | 0.00 | 0.01 | 0.00 | 75 | 1009.2 |
| 20260504035749 | 37 | 0 | 0.0 | 0.0 | 0.00 | 0.01 | 0.01 | 75 | 1009.1 |
| 20260504035031 | 37 | 0 | 0.0 | 0.0 | 0.00 | 0.01 | 0.01 | 74 | 1009.1 |
| 20260504034530 | 38 | 0 | 0.0 | 0.0 | 0.00 | 0.01 | 0.01 | 74 | 1009.1 |
| 20260504034030 | 38 | 0 | 0.0 | 0.0 | 0.00 | 0.01 | 0.01 | 73 | 1009.0 |
| 20260504033529 | 38 | 0 | 0.0 | 0.0 | 0.00 | 0.01 | 0.01 | 72 | 1009.1 |
| 20260504033031 | 38 | 0 | 0.0 | 0.0 | 0.00 | 0.01 | 0.01 | 72 | 1009.1 |
| 20260504032753 | 38 | 0 | 0.0 | 0.0 | 0.00 | 0.01 | 0.01 | 72 | 1009.0 |
| 20260504032255 | 38 | 0 | 0.0 | 0.0 | 0.00 | 0.01 | 0.01 | 71 | 1009.1 |
| 20260504031529 | 38 | 0 | 0.0 | 0.0 | 0.00 | 0.01 | 0.01 | 71 | 1009.0 |
| 20260504031030 | 38 | 0 | 0.0 | 0.0 | 0.00 | 0.01 | 0.01 | 71 | 1009.0 |
| 20260504030529 | 38 | 0 | 0.0 | 0.0 | 0.00 | 0.01 | 0.01 | 71 | 1009.0 |
| 20260504030030 | 38 | 0 | 0.0 | 0.0 | 0.00 | 0.01 | 0.01 | 70 | 1009.1 |
| 20260504025529 | 39 | 0 | 0.0 | 0.0 | 0.00 | 0.01 | 0.01 | 70 | 1009.1 |
| 20260504025030 | 39 | 0 | 0.0 | 0.0 | 0.00 | 0.01 | 0.01 | 68 | 1009.0 |
| 20260504024529 | 39 | 0 | 0.0 | 0.0 | 0.00 | 0.01 | 0.01 | 68 | 1009.0 |
| 20260504024030 | 39 | 0 | 0.0 | 0.0 | 0.00 | 0.01 | 0.01 | 68 | 1008.9 |
| 20260504023529 | 39 | 0 | 0.0 | 0.0 | 0.00 | 0.01 | 0.01 | 68 | 1008.9 |
| 20260504023030 | 39 | 0 | 0.0 | 0.0 | 0.00 | 0.01 | 0.01 | 66 | 1008.9 |
| 20260504022529 | 40 | 0 | 0.0 | 0.0 | 0.00 | 0.01 | 0.01 | 66 | 1008.9 |
| 20260504022030 | 40 | 0 | 0.0 | 0.0 | 0.00 | 0.01 | 0.01 | 66 | 1009.0 |
| 20260504021530 | 40 | 0 | 0.0 | 0.0 | 0.00 | 0.01 | 0.01 | 66 | 1009.0 |
| 20260504020528 | 41 | 0 | 0.0 | 0.0 | 0.00 | 0.01 | 0.01 | 65 | 1008.9 |
| 20260504014722 | 42 | 285 | 0.0 | 0.0 | 0.00 | 0.01 | 0.01 | 62 | 1008.7 |
| 20260504014003 | 42 | 285 | 0.0 | 0.0 | 0.00 | 0.01 | 0.01 | 61 | 1008.6 |
| 20260504013500 | 42 | 285 | 0.0 | 0.0 | 0.00 | 0.01 | 0.01 | 60 | 1008.6 |
| 20260504013003 | 42 | 285 | 0.0 | 0.0 | 0.00 | 0.01 | 0.01 | 61 | 1008.6 |
| 20260504012002 | 43 | 285 | 0.0 | 0.0 | 0.00 | 0.01 | 0.01 | 60 | 1008.6 |
| 20260504011500 | 43 | 285 | 0.0 | 0.0 | 0.00 | 0.01 | 0.01 | 60 | 1008.6 |
| 20260504011232 | 43 | 285 | 0.0 | 0.0 | 0.00 | 0.01 | 0.01 | 58 | 1008.5 |
| 20260504010500 | 44 | 285 | 0.0 | 0.0 | 0.00 | 0.01 | 0.01 | 59 | 1008.5 |
| 20260504010005 | 44 | 285 | 0.0 | 0.0 | 0.00 | 0.01 | 0.01 | 58 | 1008.4 |
| 20260504005723 | 44 | 285 | 0.0 | 0.0 | 0.00 | 0.01 | 0.01 | 57 | 1008.3 |
| 20260504005002 | 44 | 285 | 0.0 | 0.0 | 0.00 | 0.01 | 0.01 | 57 | 1008.3 |
| 20260504004502 | 45 | 285 | 0.0 | 0.0 | 0.00 | 0.01 | 0.01 | 57 | 1008.1 |
| 20260504004226 | 45 | 285 | 0.0 | 0.0 | 0.00 | 0.01 | 0.01 | 56 | 1008.1 |
| 20260504003501 | 45 | 285 | 0.0 | 0.9 | 0.00 | 0.01 | 0.01 | 54 | 1008.1 |
| 20260504003226 | 46 | 285 | 0.0 | 0.9 | 0.00 | 0.01 | 0.01 | 53 | 1008.1 |
| 20260504002502 | 46 | 285 | 0.0 | 0.9 | 0.00 | 0.01 | 0.01 | 52 | 1008.0 |
| 20260504002003 | 46 | 285 | 0.0 | 1.7 | 0.00 | 0.01 | 0.01 | 51 | 1008.0 |
| 20260504001501 | 47 | 285 | 0.0 | 1.7 | 0.00 | 0.02 | 0.01 | 51 | 1008.0 |
| 20260504001004 | 47 | 283 | 0.0 | 2.6 | 0.00 | 0.02 | 0.01 | 51 | 1007.9 |
| 20260504000722 | 47 | 283 | 0.9 | 2.6 | 0.00 | 0.02 | 0.01 | 50 | 1007.8 |
| 20260503235502 | 48 | 308 | 0.9 | 3.5 | 0.00 | 0.02 | 0.01 | 49 | 1007.7 |
| 20260503235003 | 48 | 302 | 0.9 | 3.5 | 0.00 | 0.02 | 0.01 | 47 | 1007.7 |
| 20260503234501 | 49 | 323 | 1.7 | 3.5 | 0.00 | 0.02 | 0.01 | 46 | 1007.7 |
| 20260503234003 | 49 | 325 | 0.9 | 5.2 | 0.00 | 0.02 | 0.01 | 46 | 1007.6 |
| 20260503233501 | 49 | 355 | 1.7 | 7.0 | 0.00 | 0.02 | 0.01 | 45 | 1007.4 |
| 20260503233227 | 49 | 355 | 2.6 | 7.0 | 0.00 | 0.02 | 0.01 | 45 | 1007.5 |
| 20260503231002 | 50 | 23 | 2.6 | 7.0 | 0.00 | 0.02 | 0.01 | 43 | 1007.4 |
| 20260503230500 | 51 | 329 | 2.6 | 6.1 | 0.00 | 0.02 | 0.01 | 43 | 1007.3 |
| 20260503230006 | 51 | 302 | 2.6 | 6.1 | 0.00 | 0.02 | 0.01 | 43 | 1007.2 |
| 20260503225500 | 51 | 0 | 1.7 | 7.8 | 0.00 | 0.02 | 0.01 | 42 | 1007.2 |
| 20260503225003 | 50 | 341 | 3.5 | 8.7 | 0.00 | 0.02 | 0.01 | 42 | 1007.2 |
| 20260503224501 | 50 | 344 | 4.3 | 8.7 | 0.00 | 0.02 | 0.01 | 42 | 1007.0 |
| 20260503224002 | 50 | 310 | 4.3 | 9.6 | 0.00 | 0.02 | 0.01 | 41 | 1007.0 |
| 20260503223500 | 50 | 344 | 5.2 | 9.6 | 0.00 | 0.02 | 0.01 | 41 | 1007.0 |
| 20260503223003 | 50 | 21 | 5.2 | 9.6 | 0.00 | 0.02 | 0.01 | 41 | 1006.9 |
| 20260503222721 | 51 | 300 | 2.6 | 10.4 | 0.00 | 0.02 | 0.01 | 42 | 1006.8 |